sensor_id;sensor_type;location;lat;lon;timestamp;temperature;humidity
65559;DHT22;52203;51.998;5.140;2022-11-15T00:00:28;2.06;118.99
65559;DHT22;52203;51.998;5.140;2022-11-15T00:02:54;2.02;118.99
65559;DHT22;52203;51.998;5.140;2022-11-15T00:05:20;2.08;118.99
65559;DHT22;52203;51.998;5.140;2022-11-15T00:07:45;2.11;118.99
65559;DHT22;52203;51.998;5.140;2022-11-15T00:10:11;2.05;118.99
65559;DHT22;52203;51.998;5.140;2022-11-15T00:12:37;2.11;118.99
65559;DHT22;52203;51.998;5.140;2022-11-15T00:15:03;2.10;118.99
65559;DHT22;52203;51.998;5.140;2022-11-15T00:17:28;2.12;118.99
65559;DHT22;52203;51.998;5.140;2022-11-15T00:19:54;2.13;118.99
65559;DHT22;52203;51.998;5.140;2022-11-15T00:22:20;2.22;118.99
65559;DHT22;52203;51.998;5.140;2022-11-15T00:24:46;2.12;118.99
65559;DHT22;52203;51.998;5.140;2022-11-15T00:27:11;2.16;118.99
65559;DHT22;52203;51.998;5.140;2022-11-15T00:29:37;2.14;118.99
65559;DHT22;52203;51.998;5.140;2022-11-15T00:32:04;2.17;118.99
65559;DHT22;52203;51.998;5.140;2022-11-15T00:34:30;2.16;118.99
65559;DHT22;52203;51.998;5.140;2022-11-15T00:36:55;2.21;118.99
65559;DHT22;52203;51.998;5.140;2022-11-15T00:39:21;2.21;118.99
65559;DHT22;52203;51.998;5.140;2022-11-15T00:41:47;2.17;118.99
65559;DHT22;52203;51.998;5.140;2022-11-15T00:44:12;2.21;118.99
65559;DHT22;52203;51.998;5.140;2022-11-15T00:46:38;2.24;118.99
65559;DHT22;52203;51.998;5.140;2022-11-15T00:49:03;2.24;118.99
65559;DHT22;52203;51.998;5.140;2022-11-15T00:51:29;2.27;118.99
65559;DHT22;52203;51.998;5.140;2022-11-15T00:53:55;2.32;118.99
65559;DHT22;52203;51.998;5.140;2022-11-15T00:56:20;2.30;118.99
65559;DHT22;52203;51.998;5.140;2022-11-15T00:58:46;2.34;118.99
65559;DHT22;52203;51.998;5.140;2022-11-15T01:01:13;2.31;118.99
65559;DHT22;52203;51.998;5.140;2022-11-15T01:03:40;2.35;118.99
65559;DHT22;52203;51.998;5.140;2022-11-15T01:06:09;2.39;118.99
65559;DHT22;52203;51.998;5.140;2022-11-15T01:08:35;2.38;118.99
65559;DHT22;52203;51.998;5.140;2022-11-15T01:11:06;2.46;118.99
65559;DHT22;52203;51.998;5.140;2022-11-15T01:13:33;2.42;118.99
65559;DHT22;52203;51.998;5.140;2022-11-15T01:16:04;2.46;118.99
65559;DHT22;52203;51.998;5.140;2022-11-15T01:18:30;2.49;118.99
65559;DHT22;52203;51.998;5.140;2022-11-15T01:20:56;2.49;118.99
65559;DHT22;52203;51.998;5.140;2022-11-15T01:23:21;2.54;118.99
65559;DHT22;52203;51.998;5.140;2022-11-15T01:25:47;2.58;118.99
65559;DHT22;52203;51.998;5.140;2022-11-15T01:28:12;2.57;118.99
65559;DHT22;52203;51.998;5.140;2022-11-15T01:30:38;2.56;118.99
65559;DHT22;52203;51.998;5.140;2022-11-15T01:33:03;2.54;118.99
65559;DHT22;52203;51.998;5.140;2022-11-15T01:35:29;2.66;118.99
65559;DHT22;52203;51.998;5.140;2022-11-15T01:37:54;2.55;118.99
65559;DHT22;52203;51.998;5.140;2022-11-15T01:40:20;2.57;118.99
65559;DHT22;52203;51.998;5.140;2022-11-15T01:42:45;2.64;118.99
65559;DHT22;52203;51.998;5.140;2022-11-15T01:45:14;2.73;118.99
65559;DHT22;52203;51.998;5.140;2022-11-15T01:47:44;2.74;118.99
65559;DHT22;52203;51.998;5.140;2022-11-15T01:50:16;2.85;118.99
65559;DHT22;52203;51.998;5.140;2022-11-15T01:52:43;2.83;118.99
65559;DHT22;52203;51.998;5.140;2022-11-15T01:55:20;2.87;118.99
65559;DHT22;52203;51.998;5.140;2022-11-15T01:57:49;2.82;118.99
65559;DHT22;52203;51.998;5.140;2022-11-15T02:00:16;2.93;118.99
65559;DHT22;52203;51.998;5.140;2022-11-15T02:02:42;2.90;118.99
65559;DHT22;52203;51.998;5.140;2022-11-15T02:05:08;2.96;118.99
65559;DHT22;52203;51.998;5.140;2022-11-15T02:07:35;3.06;118.99
65559;DHT22;52203;51.998;5.140;2022-11-15T02:10:09;3.08;118.99
65559;DHT22;52203;51.998;5.140;2022-11-15T02:12:35;3.05;118.99
65559;DHT22;52203;51.998;5.140;2022-11-15T02:15:02;3.12;118.99
65559;DHT22;52203;51.998;5.140;2022-11-15T02:29:08;3.48;118.99
65559;DHT22;52203;51.998;5.140;2022-11-15T02:31:46;3.44;118.99
65559;DHT22;52203;51.998;5.140;2022-11-15T02:34:33;3.42;118.99
65559;DHT22;52203;51.998;5.140;2022-11-15T02:37:06;3.44;118.99
65559;DHT22;52203;51.998;5.140;2022-11-15T02:39:56;3.48;118.99
65559;DHT22;52203;51.998;5.140;2022-11-15T02:42:26;3.49;118.99
65559;DHT22;52203;51.998;5.140;2022-11-15T02:45:19;3.55;118.99
65559;DHT22;52203;51.998;5.140;2022-11-15T02:47:49;3.55;118.99
65559;DHT22;52203;51.998;5.140;2022-11-15T02:50:19;3.64;118.99
65559;DHT22;52203;51.998;5.140;2022-11-15T02:52:46;3.71;118.99
65559;DHT22;52203;51.998;5.140;2022-11-15T02:55:33;3.53;118.99
65559;DHT22;52203;51.998;5.140;2022-11-15T03:11:18;3.56;118.99
65559;DHT22;52203;51.998;5.140;2022-11-15T03:19:23;3.65;118.99
65559;DHT22;52203;51.998;5.140;2022-11-15T03:21:52;3.63;118.99
65559;DHT22;52203;51.998;5.140;2022-11-15T03:24:21;3.65;118.99
65559;DHT22;52203;51.998;5.140;2022-11-15T03:26:50;3.68;118.99
65559;DHT22;52203;51.998;5.140;2022-11-15T03:29:22;3.84;118.99
65559;DHT22;52203;51.998;5.140;2022-11-15T03:31:55;3.92;118.99
65559;DHT22;52203;51.998;5.140;2022-11-15T03:34:26;3.99;118.99
65559;DHT22;52203;51.998;5.140;2022-11-15T03:36:53;3.92;118.99
65559;DHT22;52203;51.998;5.140;2022-11-15T03:39:20;3.99;118.99
65559;DHT22;52203;51.998;5.140;2022-11-15T03:42:07;4.09;118.99
65559;DHT22;52203;51.998;5.140;2022-11-15T03:44:55;4.10;118.99
65559;DHT22;52203;51.998;5.140;2022-11-15T03:47:29;4.06;118.99
65559;DHT22;52203;51.998;5.140;2022-11-15T03:50:08;4.06;118.99
65559;DHT22;52203;51.998;5.140;2022-11-15T03:52:35;4.09;118.99
65559;DHT22;52203;51.998;5.140;2022-11-15T03:55:03;4.08;118.99
65559;DHT22;52203;51.998;5.140;2022-11-15T03:57:29;3.94;118.99
65559;DHT22;52203;51.998;5.140;2022-11-15T03:59:55;4.09;118.99
65559;DHT22;52203;51.998;5.140;2022-11-15T04:02:20;4.13;118.99
65559;DHT22;52203;51.998;5.140;2022-11-15T04:04:46;4.03;118.99
65559;DHT22;52203;51.998;5.140;2022-11-15T04:07:11;4.12;118.99
65559;DHT22;52203;51.998;5.140;2022-11-15T04:09:37;4.04;118.99
65559;DHT22;52203;51.998;5.140;2022-11-15T04:12:21;4.08;118.99
65559;DHT22;52203;51.998;5.140;2022-11-15T04:15:12;4.05;118.99
65559;DHT22;52203;51.998;5.140;2022-11-15T04:17:43;4.02;118.99
65559;DHT22;52203;51.998;5.140;2022-11-15T04:20:17;4.05;118.99
65559;DHT22;52203;51.998;5.140;2022-11-15T04:23:04;4.01;118.99
65559;DHT22;52203;51.998;5.140;2022-11-15T04:25:53;3.99;118.99
65559;DHT22;52203;51.998;5.140;2022-11-15T04:28:19;3.94;118.99
65559;DHT22;52203;51.998;5.140;2022-11-15T04:30:45;4.07;118.99
65559;DHT22;52203;51.998;5.140;2022-11-15T04:33:10;4.05;118.99
65559;DHT22;52203;51.998;5.140;2022-11-15T04:35:36;4.03;118.99
65559;DHT22;52203;51.998;5.140;2022-11-15T04:38:03;4.09;118.99
65559;DHT22;52203;51.998;5.140;2022-11-15T04:40:29;4.07;118.99
65559;DHT22;52203;51.998;5.140;2022-11-15T04:42:55;4.04;118.99
65559;DHT22;52203;51.998;5.140;2022-11-15T04:45:20;4.14;118.99
65559;DHT22;52203;51.998;5.140;2022-11-15T04:47:46;4.02;118.99
65559;DHT22;52203;51.998;5.140;2022-11-15T04:50:13;4.02;118.99
65559;DHT22;52203;51.998;5.140;2022-11-15T04:52:43;4.06;118.99
65559;DHT22;52203;51.998;5.140;2022-11-15T04:55:10;4.31;118.99
65559;DHT22;52203;51.998;5.140;2022-11-15T04:57:37;4.35;118.99
65559;DHT22;52203;51.998;5.140;2022-11-15T05:00:07;4.22;118.99
65559;DHT22;52203;51.998;5.140;2022-11-15T05:02:33;4.27;118.99
65559;DHT22;52203;51.998;5.140;2022-11-15T05:05:17;4.33;118.99
65559;DHT22;52203;51.998;5.140;2022-11-15T05:07:43;4.23;118.99
65559;DHT22;52203;51.998;5.140;2022-11-15T05:10:09;4.19;118.99
65559;DHT22;52203;51.998;5.140;2022-11-15T05:12:35;4.28;118.99
65559;DHT22;52203;51.998;5.140;2022-11-15T05:15:00;4.50;118.99
65559;DHT22;52203;51.998;5.140;2022-11-15T05:17:26;4.46;118.99
65559;DHT22;52203;51.998;5.140;2022-11-15T05:19:52;4.41;118.99
65559;DHT22;52203;51.998;5.140;2022-11-15T05:22:18;4.37;118.99
65559;DHT22;52203;51.998;5.140;2022-11-15T05:24:43;4.42;118.99
65559;DHT22;52203;51.998;5.140;2022-11-15T05:27:09;4.46;118.99
65559;DHT22;52203;51.998;5.140;2022-11-15T05:29:35;4.48;118.99
65559;DHT22;52203;51.998;5.140;2022-11-15T05:32:00;4.62;118.99
65559;DHT22;52203;51.998;5.140;2022-11-15T05:34:26;4.62;118.99
65559;DHT22;52203;51.998;5.140;2022-11-15T05:36:52;4.73;118.99
65559;DHT22;52203;51.998;5.140;2022-11-15T05:39:18;4.95;118.99
65559;DHT22;52203;51.998;5.140;2022-11-15T05:41:50;4.74;118.99
65559;DHT22;52203;51.998;5.140;2022-11-15T05:44:21;4.72;118.99
65559;DHT22;52203;51.998;5.140;2022-11-15T05:46:49;4.78;118.99
65559;DHT22;52203;51.998;5.140;2022-11-15T05:49:18;4.89;118.99
65559;DHT22;52203;51.998;5.140;2022-11-15T05:51:46;4.77;118.99
65559;DHT22;52203;51.998;5.140;2022-11-15T05:54:12;4.87;118.99
65559;DHT22;52203;51.998;5.140;2022-11-15T05:56:37;4.86;118.99
65559;DHT22;52203;51.998;5.140;2022-11-15T05:59:04;4.92;118.99
65559;DHT22;52203;51.998;5.140;2022-11-15T06:01:29;4.87;118.99
65559;DHT22;52203;51.998;5.140;2022-11-15T06:03:55;4.82;118.99
65559;DHT22;52203;51.998;5.140;2022-11-15T06:06:20;4.78;118.99
65559;DHT22;52203;51.998;5.140;2022-11-15T06:08:46;4.69;118.99
65559;DHT22;52203;51.998;5.140;2022-11-15T06:11:13;4.77;118.99
65559;DHT22;52203;51.998;5.140;2022-11-15T06:13:38;4.73;118.99
65559;DHT22;52203;51.998;5.140;2022-11-15T06:16:04;4.69;118.99
65559;DHT22;52203;51.998;5.140;2022-11-15T06:18:33;4.78;118.99
65559;DHT22;52203;51.998;5.140;2022-11-15T06:20:59;4.89;118.99
65559;DHT22;52203;51.998;5.140;2022-11-15T06:23:25;4.90;118.99
65559;DHT22;52203;51.998;5.140;2022-11-15T06:25:51;4.79;118.99
65559;DHT22;52203;51.998;5.140;2022-11-15T06:28:16;4.87;118.99
65559;DHT22;52203;51.998;5.140;2022-11-15T06:30:42;4.74;118.99
65559;DHT22;52203;51.998;5.140;2022-11-15T06:33:07;4.73;118.99
65559;DHT22;52203;51.998;5.140;2022-11-15T06:35:35;4.92;118.99
65559;DHT22;52203;51.998;5.140;2022-11-15T06:38:09;4.86;118.99
65559;DHT22;52203;51.998;5.140;2022-11-15T06:40:36;4.93;118.99
65559;DHT22;52203;51.998;5.140;2022-11-15T06:43:02;5.02;118.99
65559;DHT22;52203;51.998;5.140;2022-11-15T06:45:29;4.82;118.99
65559;DHT22;52203;51.998;5.140;2022-11-15T06:47:54;4.87;118.99
65559;DHT22;52203;51.998;5.140;2022-11-15T06:50:20;4.96;118.99
65559;DHT22;52203;51.998;5.140;2022-11-15T06:52:45;4.97;118.99
65559;DHT22;52203;51.998;5.140;2022-11-15T06:55:11;4.82;118.99
65559;DHT22;52203;51.998;5.140;2022-11-15T06:57:36;4.87;118.99
65559;DHT22;52203;51.998;5.140;2022-11-15T07:00:06;4.89;118.99
65559;DHT22;52203;51.998;5.140;2022-11-15T07:02:31;4.90;118.99
65559;DHT22;52203;51.998;5.140;2022-11-15T07:04:57;4.92;118.99
65559;DHT22;52203;51.998;5.140;2022-11-15T07:07:22;4.97;118.99
65559;DHT22;52203;51.998;5.140;2022-11-15T07:09:48;4.86;118.99
65559;DHT22;52203;51.998;5.140;2022-11-15T07:12:13;4.88;118.99
65559;DHT22;52203;51.998;5.140;2022-11-15T07:14:39;4.89;118.99
65559;DHT22;52203;51.998;5.140;2022-11-15T07:17:04;4.97;118.99
65559;DHT22;52203;51.998;5.140;2022-11-15T07:19:30;4.89;118.99
65559;DHT22;52203;51.998;5.140;2022-11-15T07:21:56;4.87;118.99
65559;DHT22;52203;51.998;5.140;2022-11-15T07:24:22;4.88;118.99
65559;DHT22;52203;51.998;5.140;2022-11-15T07:26:47;4.75;118.99
65559;DHT22;52203;51.998;5.140;2022-11-15T07:29:13;4.80;118.99
65559;DHT22;52203;51.998;5.140;2022-11-15T07:31:38;4.73;118.99
65559;DHT22;52203;51.998;5.140;2022-11-15T07:34:04;4.76;118.99
65559;DHT22;52203;51.998;5.140;2022-11-15T07:36:30;4.77;118.99
65559;DHT22;52203;51.998;5.140;2022-11-15T07:38:55;4.67;118.99
65559;DHT22;52203;51.998;5.140;2022-11-15T07:41:21;4.71;118.99
65559;DHT22;52203;51.998;5.140;2022-11-15T07:43:46;4.68;118.99
65559;DHT22;52203;51.998;5.140;2022-11-15T07:46:12;4.59;118.99
65559;DHT22;52203;51.998;5.140;2022-11-15T07:48:38;4.69;118.99
65559;DHT22;52203;51.998;5.140;2022-11-15T07:51:06;4.83;118.99
65559;DHT22;52203;51.998;5.140;2022-11-15T07:53:32;4.82;118.99
65559;DHT22;52203;51.998;5.140;2022-11-15T07:55:57;4.80;118.99
65559;DHT22;52203;51.998;5.140;2022-11-15T07:58:23;4.82;118.99
65559;DHT22;52203;51.998;5.140;2022-11-15T08:00:48;4.93;118.99
65559;DHT22;52203;51.998;5.140;2022-11-15T08:03:16;4.93;118.99
65559;DHT22;52203;51.998;5.140;2022-11-15T08:05:43;4.96;118.99
65559;DHT22;52203;51.998;5.140;2022-11-15T08:08:10;4.97;118.99
65559;DHT22;52203;51.998;5.140;2022-11-15T08:10:36;4.98;118.99
65559;DHT22;52203;51.998;5.140;2022-11-15T08:13:03;5.02;118.99
65559;DHT22;52203;51.998;5.140;2022-11-15T08:15:29;4.97;118.99
65559;DHT22;52203;51.998;5.140;2022-11-15T08:18:00;5.03;118.99
65559;DHT22;52203;51.998;5.140;2022-11-15T08:20:28;5.06;118.99
65559;DHT22;52203;51.998;5.140;2022-11-15T08:22:57;5.08;118.99
65559;DHT22;52203;51.998;5.140;2022-11-15T08:25:23;5.10;118.99
65559;DHT22;52203;51.998;5.140;2022-11-15T08:27:56;5.12;118.99
65559;DHT22;52203;51.998;5.140;2022-11-15T08:30:22;5.18;118.99
65559;DHT22;52203;51.998;5.140;2022-11-15T08:32:48;5.18;118.99
65559;DHT22;52203;51.998;5.140;2022-11-15T08:35:14;5.20;118.99
65559;DHT22;52203;51.998;5.140;2022-11-15T08:37:40;5.25;118.99
65559;DHT22;52203;51.998;5.140;2022-11-15T08:40:06;5.28;118.99
65559;DHT22;52203;51.998;5.140;2022-11-15T08:42:32;5.30;118.99
65559;DHT22;52203;51.998;5.140;2022-11-15T08:44:57;5.28;118.99
65559;DHT22;52203;51.998;5.140;2022-11-15T08:47:23;5.30;118.99
65559;DHT22;52203;51.998;5.140;2022-11-15T08:49:49;5.35;118.99
65559;DHT22;52203;51.998;5.140;2022-11-15T08:52:15;5.25;118.99
65559;DHT22;52203;51.998;5.140;2022-11-15T08:54:40;5.24;118.99
65559;DHT22;52203;51.998;5.140;2022-11-15T08:57:07;5.26;118.99
65559;DHT22;52203;51.998;5.140;2022-11-15T08:59:35;5.32;118.99
65559;DHT22;52203;51.998;5.140;2022-11-15T09:02:00;5.33;118.99
65559;DHT22;52203;51.998;5.140;2022-11-15T09:04:26;5.37;118.99
65559;DHT22;52203;51.998;5.140;2022-11-15T09:06:51;5.40;118.99
65559;DHT22;52203;51.998;5.140;2022-11-15T09:09:17;5.45;118.99
65559;DHT22;52203;51.998;5.140;2022-11-15T09:11:43;5.42;118.99
65559;DHT22;52203;51.998;5.140;2022-11-15T09:14:11;5.47;118.99
65559;DHT22;52203;51.998;5.140;2022-11-15T09:16:36;5.51;118.99
65559;DHT22;52203;51.998;5.140;2022-11-15T09:19:02;5.59;118.99
65559;DHT22;52203;51.998;5.140;2022-11-15T09:21:29;5.53;118.99
65559;DHT22;52203;51.998;5.140;2022-11-15T09:23:55;5.52;118.99
65559;DHT22;52203;51.998;5.140;2022-11-15T09:26:20;5.46;118.99
65559;DHT22;52203;51.998;5.140;2022-11-15T09:28:46;5.43;118.99
65559;DHT22;52203;51.998;5.140;2022-11-15T09:31:12;5.38;118.99
65559;DHT22;52203;51.998;5.140;2022-11-15T09:33:38;5.36;118.99
65559;DHT22;52203;51.998;5.140;2022-11-15T09:36:07;5.39;118.99
65559;DHT22;52203;51.998;5.140;2022-11-15T09:38:33;5.46;118.99
65559;DHT22;52203;51.998;5.140;2022-11-15T09:44:20;5.50;118.99
65559;DHT22;52203;51.998;5.140;2022-11-15T09:49:39;5.50;118.99
65559;DHT22;52203;51.998;5.140;2022-11-15T09:52:06;5.52;118.99
65559;DHT22;52203;51.998;5.140;2022-11-15T09:54:37;5.62;118.99
65559;DHT22;52203;51.998;5.140;2022-11-15T09:57:09;5.66;118.99
65559;DHT22;52203;51.998;5.140;2022-11-15T09:59:59;5.74;118.99
65559;DHT22;52203;51.998;5.140;2022-11-15T10:05:00;5.86;118.99
65559;DHT22;52203;51.998;5.140;2022-11-15T10:07:31;5.85;118.99
65559;DHT22;52203;51.998;5.140;2022-11-15T10:12:45;5.85;118.99
65559;DHT22;52203;51.998;5.140;2022-11-15T10:15:14;5.81;118.99
65559;DHT22;52203;51.998;5.140;2022-11-15T10:20:26;5.83;118.99
65559;DHT22;52203;51.998;5.140;2022-11-15T10:23:14;5.81;118.99
65559;DHT22;52203;51.998;5.140;2022-11-15T10:25:41;5.82;118.99
65559;DHT22;52203;51.998;5.140;2022-11-15T10:28:21;5.78;118.99
65559;DHT22;52203;51.998;5.140;2022-11-15T10:30:52;5.76;118.99
65559;DHT22;52203;51.998;5.140;2022-11-15T10:33:37;5.77;118.99
65559;DHT22;52203;51.998;5.140;2022-11-15T10:38:51;5.75;118.99
65559;DHT22;52203;51.998;5.140;2022-11-15T10:41:29;5.76;118.99
65559;DHT22;52203;51.998;5.140;2022-11-15T10:46:39;5.81;118.99
65559;DHT22;52203;51.998;5.140;2022-11-15T10:49:21;5.84;118.99
65559;DHT22;52203;51.998;5.140;2022-11-15T10:51:48;5.85;118.99
65559;DHT22;52203;51.998;5.140;2022-11-15T10:56:51;5.86;118.99
65559;DHT22;52203;51.998;5.140;2022-11-15T10:59:25;5.86;118.99
65559;DHT22;52203;51.998;5.140;2022-11-15T11:01:51;5.85;118.99
65559;DHT22;52203;51.998;5.140;2022-11-15T11:04:17;5.89;118.99
65559;DHT22;52203;51.998;5.140;2022-11-15T11:06:48;5.87;118.99
65559;DHT22;52203;51.998;5.140;2022-11-15T11:09:34;5.87;118.99
65559;DHT22;52203;51.998;5.140;2022-11-15T11:12:01;5.87;118.99
65559;DHT22;52203;51.998;5.140;2022-11-15T11:14:32;5.84;118.99
65559;DHT22;52203;51.998;5.140;2022-11-15T11:20:07;5.76;118.99
65559;DHT22;52203;51.998;5.140;2022-11-15T11:25:35;5.69;118.99
65559;DHT22;52203;51.998;5.140;2022-11-15T11:33:21;5.80;118.99
65559;DHT22;52203;51.998;5.140;2022-11-15T11:46:53;6.05;118.99
65559;DHT22;52203;51.998;5.140;2022-11-15T11:54:47;6.10;118.99
65559;DHT22;52203;51.998;5.140;2022-11-15T11:57:33;6.09;118.99
65559;DHT22;52203;51.998;5.140;2022-11-15T12:00:12;6.13;118.99
65559;DHT22;52203;51.998;5.140;2022-11-15T12:02:42;6.10;118.99
65559;DHT22;52203;51.998;5.140;2022-11-15T12:05:32;6.10;118.99
65559;DHT22;52203;51.998;5.140;2022-11-15T12:08:24;6.08;118.99
65559;DHT22;52203;51.998;5.140;2022-11-15T12:13:40;6.09;118.99
65559;DHT22;52203;51.998;5.140;2022-11-15T12:16:19;6.13;118.99
65559;DHT22;52203;51.998;5.140;2022-11-15T12:18:53;6.19;118.99
65559;DHT22;52203;51.998;5.140;2022-11-15T12:21:44;6.23;118.99
65559;DHT22;52203;51.998;5.140;2022-11-15T12:24:19;6.28;118.99
65559;DHT22;52203;51.998;5.140;2022-11-15T12:27:09;6.28;118.99
65559;DHT22;52203;51.998;5.140;2022-11-15T12:29:49;6.26;118.99
65559;DHT22;52203;51.998;5.140;2022-11-15T12:32:36;6.29;118.99
65559;DHT22;52203;51.998;5.140;2022-11-15T12:35:05;6.33;118.99
65559;DHT22;52203;51.998;5.140;2022-11-15T12:42:41;6.44;118.99
65559;DHT22;52203;51.998;5.140;2022-11-15T12:45:26;6.31;118.99
65559;DHT22;52203;51.998;5.140;2022-11-15T12:47:52;6.35;118.99
65559;DHT22;52203;51.998;5.140;2022-11-15T12:58:59;6.24;118.99
65559;DHT22;52203;51.998;5.140;2022-11-15T13:06:46;6.08;118.99
65559;DHT22;52203;51.998;5.140;2022-11-15T13:14:46;6.00;118.99
65559;DHT22;52203;51.998;5.140;2022-11-15T13:17:17;5.98;118.99
65559;DHT22;52203;51.998;5.140;2022-11-15T13:20:00;5.90;118.99
65559;DHT22;52203;51.998;5.140;2022-11-15T13:22:27;5.90;118.99
65559;DHT22;52203;51.998;5.140;2022-11-15T13:30:53;5.90;118.99
65559;DHT22;52203;51.998;5.140;2022-11-15T13:35:56;5.84;118.99
65559;DHT22;52203;51.998;5.140;2022-11-15T13:38:28;5.87;118.99
65559;DHT22;52203;51.998;5.140;2022-11-15T13:40:55;5.87;118.99
65559;DHT22;52203;51.998;5.140;2022-11-15T13:46:11;5.91;118.99
65559;DHT22;52203;51.998;5.140;2022-11-15T13:48:38;5.93;118.99
65559;DHT22;52203;51.998;5.140;2022-11-15T13:51:12;5.95;118.99
65559;DHT22;52203;51.998;5.140;2022-11-15T13:53:40;5.99;118.99
65559;DHT22;52203;51.998;5.140;2022-11-15T13:56:08;5.98;118.99
65559;DHT22;52203;51.998;5.140;2022-11-15T13:58:37;5.99;118.99
65559;DHT22;52203;51.998;5.140;2022-11-15T14:01:04;5.98;118.99
65559;DHT22;52203;51.998;5.140;2022-11-15T14:03:50;5.99;118.99
65559;DHT22;52203;51.998;5.140;2022-11-15T14:06:19;6.02;118.99
65559;DHT22;52203;51.998;5.140;2022-11-15T14:09:14;5.99;118.99
65559;DHT22;52203;51.998;5.140;2022-11-15T14:11:55;5.94;118.99
65559;DHT22;52203;51.998;5.140;2022-11-15T14:14:23;5.95;118.99
65559;DHT22;52203;51.998;5.140;2022-11-15T14:16:57;5.92;118.99
65559;DHT22;52203;51.998;5.140;2022-11-15T14:22:12;5.89;118.99
65559;DHT22;52203;51.998;5.140;2022-11-15T14:24:39;5.86;118.99
65559;DHT22;52203;51.998;5.140;2022-11-15T14:27:21;5.83;118.99
65559;DHT22;52203;51.998;5.140;2022-11-15T14:29:48;5.84;118.99
65559;DHT22;52203;51.998;5.140;2022-11-15T14:32:18;5.82;118.99
65559;DHT22;52203;51.998;5.140;2022-11-15T14:34:45;5.83;118.99
65559;DHT22;52203;51.998;5.140;2022-11-15T14:37:20;5.84;118.99
65559;DHT22;52203;51.998;5.140;2022-11-15T14:39:47;5.79;118.99
65559;DHT22;52203;51.998;5.140;2022-11-15T14:42:13;5.79;118.99
65559;DHT22;52203;51.998;5.140;2022-11-15T14:44:38;5.78;118.99
65559;DHT22;52203;51.998;5.140;2022-11-15T14:47:04;5.76;118.99
65559;DHT22;52203;51.998;5.140;2022-11-15T14:49:29;5.75;118.99
65559;DHT22;52203;51.998;5.140;2022-11-15T14:51:55;5.68;118.99
65559;DHT22;52203;51.998;5.140;2022-11-15T14:54:20;5.68;118.99
65559;DHT22;52203;51.998;5.140;2022-11-15T14:56:46;5.68;118.99
65559;DHT22;52203;51.998;5.140;2022-11-15T14:59:12;5.66;118.99
65559;DHT22;52203;51.998;5.140;2022-11-15T15:01:37;5.65;118.99
65559;DHT22;52203;51.998;5.140;2022-11-15T15:04:03;5.62;118.99
65559;DHT22;52203;51.998;5.140;2022-11-15T15:06:28;5.63;118.99
65559;DHT22;52203;51.998;5.140;2022-11-15T15:08:55;5.61;118.99
65559;DHT22;52203;51.998;5.140;2022-11-15T15:11:24;5.65;118.99
65559;DHT22;52203;51.998;5.140;2022-11-15T15:13:51;5.62;118.99
65559;DHT22;52203;51.998;5.140;2022-11-15T15:16:17;5.62;118.99
65559;DHT22;52203;51.998;5.140;2022-11-15T15:18:43;5.61;118.99
65559;DHT22;52203;51.998;5.140;2022-11-15T15:21:23;5.56;118.99
65559;DHT22;52203;51.998;5.140;2022-11-15T15:23:50;5.53;118.99
65559;DHT22;52203;51.998;5.140;2022-11-15T15:26:15;5.50;118.99
65559;DHT22;52203;51.998;5.140;2022-11-15T15:28:41;5.46;118.99
65559;DHT22;52203;51.998;5.140;2022-11-15T15:31:08;5.42;118.99
65559;DHT22;52203;51.998;5.140;2022-11-15T15:33:34;5.47;118.99
65559;DHT22;52203;51.998;5.140;2022-11-15T15:36:00;5.39;118.99
65559;DHT22;52203;51.998;5.140;2022-11-15T15:38:26;5.46;118.99
65559;DHT22;52203;51.998;5.140;2022-11-15T15:40:51;5.47;118.99
65559;DHT22;52203;51.998;5.140;2022-11-15T15:43:17;5.48;118.99
65559;DHT22;52203;51.998;5.140;2022-11-15T15:45:42;5.46;118.99
65559;DHT22;52203;51.998;5.140;2022-11-15T15:48:14;5.45;118.99
65559;DHT22;52203;51.998;5.140;2022-11-15T15:50:41;5.45;118.99
65559;DHT22;52203;51.998;5.140;2022-11-15T15:53:08;5.40;118.99
65559;DHT22;52203;51.998;5.140;2022-11-15T15:55:35;5.41;118.99
65559;DHT22;52203;51.998;5.140;2022-11-15T15:58:01;5.39;118.99
65559;DHT22;52203;51.998;5.140;2022-11-15T16:00:27;5.35;118.99
65559;DHT22;52203;51.998;5.140;2022-11-15T16:02:53;5.39;118.99
65559;DHT22;52203;51.998;5.140;2022-11-15T16:05:19;5.43;118.99
65559;DHT22;52203;51.998;5.140;2022-11-15T16:07:45;5.41;118.99
65559;DHT22;52203;51.998;5.140;2022-11-15T16:10:27;5.42;118.99
65559;DHT22;52203;51.998;5.140;2022-11-15T16:12:54;5.43;118.99
65559;DHT22;52203;51.998;5.140;2022-11-15T16:15:21;5.42;118.99
65559;DHT22;52203;51.998;5.140;2022-11-15T16:17:53;5.45;118.99
65559;DHT22;52203;51.998;5.140;2022-11-15T16:20:54;5.42;118.99
65559;DHT22;52203;51.998;5.140;2022-11-15T16:23:21;5.42;118.99
65559;DHT22;52203;51.998;5.140;2022-11-15T16:25:54;5.39;118.99
65559;DHT22;52203;51.998;5.140;2022-11-15T16:28:30;5.41;118.99
65559;DHT22;52203;51.998;5.140;2022-11-15T16:31:09;5.40;118.99
65559;DHT22;52203;51.998;5.140;2022-11-15T16:33:35;5.37;118.99
65559;DHT22;52203;51.998;5.140;2022-11-15T16:36:02;5.33;118.99
65559;DHT22;52203;51.998;5.140;2022-11-15T16:38:28;5.33;118.99
65559;DHT22;52203;51.998;5.140;2022-11-15T16:40:54;5.33;118.99
65559;DHT22;52203;51.998;5.140;2022-11-15T16:43:19;5.35;118.99
65559;DHT22;52203;51.998;5.140;2022-11-15T16:45:46;5.33;118.99
65559;DHT22;52203;51.998;5.140;2022-11-15T16:48:29;5.32;118.99
65559;DHT22;52203;51.998;5.140;2022-11-15T16:50:57;5.33;118.99
65559;DHT22;52203;51.998;5.140;2022-11-15T16:53:22;5.30;118.99
65559;DHT22;52203;51.998;5.140;2022-11-15T16:55:48;5.23;118.99
65559;DHT22;52203;51.998;5.140;2022-11-15T16:58:14;5.22;118.99
65559;DHT22;52203;51.998;5.140;2022-11-15T17:00:39;5.19;118.99
65559;DHT22;52203;51.998;5.140;2022-11-15T17:03:05;5.16;118.99
65559;DHT22;52203;51.998;5.140;2022-11-15T17:05:31;5.12;118.99
65559;DHT22;52203;51.998;5.140;2022-11-15T17:07:58;5.12;118.99
65559;DHT22;52203;51.998;5.140;2022-11-15T17:10:25;5.10;118.99
65559;DHT22;52203;51.998;5.140;2022-11-15T17:12:51;5.08;118.99
65559;DHT22;52203;51.998;5.140;2022-11-15T17:15:17;5.09;118.99
65559;DHT22;52203;51.998;5.140;2022-11-15T17:17:43;5.08;118.99
65559;DHT22;52203;51.998;5.140;2022-11-15T17:20:14;5.07;118.99
65559;DHT22;52203;51.998;5.140;2022-11-15T17:22:40;5.06;118.99
65559;DHT22;52203;51.998;5.140;2022-11-15T17:25:05;5.07;118.99
65559;DHT22;52203;51.998;5.140;2022-11-15T17:27:31;5.11;118.99
65559;DHT22;52203;51.998;5.140;2022-11-15T17:29:57;5.09;118.99
65559;DHT22;52203;51.998;5.140;2022-11-15T17:32:22;5.08;118.99
65559;DHT22;52203;51.998;5.140;2022-11-15T17:34:48;5.10;118.99
65559;DHT22;52203;51.998;5.140;2022-11-15T17:37:13;5.06;118.99
65559;DHT22;52203;51.998;5.140;2022-11-15T17:39:39;5.04;118.99
65559;DHT22;52203;51.998;5.140;2022-11-15T17:42:04;5.03;118.99